航空気象通報

ウインドサーファーのための航空気象通報による風予報です。

4/23-4/25の航空気象通報

2017年04月23日 23時29分53秒 | TAF
羽田空港
TAF RJTT 231107Z 2312/2418 10010KT 9999 FEW020 BKN040
BECMG 2318/2320 04006KT
BECMG 2400/2403 16012KT
日本時間23日21時-24日03時:100度から10ノットの風
03-05時:風が変化
05-09時:040度から6ノットの風
09-12時:風が変化
12時-25日03時:160度から12ノットの風


静岡空港
TAF RJNS 231108Z 2312/2418 11004KT 9999 FEW020 BKN035
BECMG 2312/2314 35005KT
TEMPO 2317/2320 FEW005 BKN008
BECMG 2400/2403 14008KT
BECMG 2415/2418 36005KT
日本時間23日21時:110度から4ノットの風
21-23時:風が変化
23時-24日09時:350度から5ノットの風
09-12時:風が変化
12-24時:140度から8ノットの風
25日00-03時:風が変化
03時:360度から5ノットの風


福岡空港
TAF RJFF 231106Z 2312/2418 14004KT CAVOK
BECMG 2403/2406 33012KT
BECMG 2409/2412 15008KT
日本時間23日21時-24日12時:140度から4ノットの風
12-15時:風が変化
15-18時:330度から12ノットの風
18-21時:風が変化
21時-25日03時:150度から8ノットの風


那覇空港
TAF ROAH 231105Z 2312/2418 07006KT 9999 FEW030 SCT040
BECMG 2406/2409 10008KT
日本時間23日21時-24日15時:070度から6ノットの風
15-18時:風が変化
18時-25日03時:100度から8ノットの風


石垣空港
TAF ROIG 231107Z 2312/2418 05006KT 9999 FEW020 SCT030
日本時間23日21時-25日03時:050度から6ノットの風


マウイのカフルイ空港
PHOG 231418Z 2314/2412 05010KT P6SM FEW050 BKN080
FM232000 06016G23KT P6SM FEW035 SCT050
FM240600 06010G15KT P6SM FEW035 SCT050 AMD LTD TO VIS AND WIND TIL 231600
ハワイ時間23日02-10時:050度から10ノットの風

10-20時:060度から16ノット、突風23ノット
20時-24日02時:060度から10ノット、突風15ノット


サイパン空港
TAF PGSN 231134Z 2312/2412 10010KT P6SM VCSH FEW018 SCT040 BKN120
マリアナ時間23日22時-24日22時:100度から10ノットの風

ジャンル:
お天気
コメント   この記事についてブログを書く
この記事をはてなブックマークに追加
« 4/22-4/24の航空気象通報 | トップ | 4/25-4/27の航空気象通報 »
最近の画像もっと見る

コメントを投稿

ブログ作成者から承認されるまでコメントは反映されません。

TAF」カテゴリの最新記事